Time;durP1;ratioP1;P1;durP2;ratioP2;P2;SDS_P1;SDS_P2;PMS_P1;PMS_P2;Temp;Humidity;BMP_temperature;BMP_pressure;BME280_temperature;BME280_humidity;BME280_pressure;Samples;Min_cycle;Max_cycle;Signal;HPM_P1;HPM_P2
2022/09/06 00:00:16;;;;;;;16.15;8.63;;;;;;;25.08;60.51;101467.91;4974945;28;20515;-81
2022/09/06 00:02:44;;;;;;;11.07;7.03;;;;;;;25.60;60.74;101568.59;4976504;28;20061;-82
2022/09/06 00:05:11;;;;;;;11.18;7.57;;;;;;;25.49;60.67;101555.69;4977248;28;20674;-82
2022/09/06 00:07:39;;;;;;;13.13;7.15;;;;;;;25.56;60.77;101572.81;4976482;28;20119;-82
2022/09/06 00:10:05;;;;;;;17.48;8.60;;;;;;;25.30;60.63;101536.47;4976203;28;20064;-82
2022/09/06 00:12:32;;;;;;;17.60;8.02;;;;;;;25.57;60.42;101569.88;4977817;28;20089;-83
2022/09/06 00:18:54;;;;;;;8.93;7.03;;;;;;;25.50;61.13;101562.78;4939307;28;20781;-82
2022/09/06 00:21:24;;;;;;;16.08;8.68;;;;;;;25.45;61.31;101570.72;4975385;28;20069;-82
2022/09/06 00:23:51;;;;;;;19.85;9.48;;;;;;;25.15;61.43;101527.69;4976882;28;20054;-82
2022/09/06 00:26:20;;;;;;;16.70;8.68;;;;;;;24.35;61.55;101401.94;4976443;28;20652;-82
2022/09/06 00:28:47;;;;;;;18.48;9.30;;;;;;;25.29;61.82;101570.13;4975945;28;20057;-81
2022/09/06 00:31:23;;;;;;;17.05;9.55;;;;;;;24.51;61.85;101440.38;4975748;28;20145;-83
2022/09/06 00:33:50;;;;;;;14.43;8.68;;;;;;;25.03;61.85;101540.25;4975637;28;20505;-81
2022/09/06 00:36:18;;;;;;;17.20;7.93;;;;;;;25.00;61.55;101533.34;4975833;28;20061;-82
2022/09/06 00:38:45;;;;;;;8.27;7.32;;;;;;;25.20;61.47;101565.97;4975059;28;20054;-81
2022/09/06 00:41:14;;;;;;;13.10;7.03;;;;;;;25.01;61.20;101528.75;4976055;28;20155;-82
2022/09/06 00:43:41;;;;;;;9.13;6.72;;;;;;;25.19;61.14;101541.69;4976049;28;20136;-82
2022/09/06 00:46:13;;;;;;;8.63;7.43;;;;;;;25.24;61.46;101572.63;4975736;28;20466;-82
2022/09/06 00:48:41;;;;;;;10.32;7.85;;;;;;;25.21;61.54;101566.78;4968968;28;20137;-81
2022/09/06 00:51:11;;;;;;;9.23;7.07;;;;;;;25.01;61.48;101537.72;4957036;28;20042;-82
2022/09/06 00:53:38;;;;;;;15.50;8.25;;;;;;;24.73;61.68;101497.19;4958422;28;20046;-83
2022/09/06 00:56:05;;;;;;;9.43;6.68;;;;;;;24.24;61.29;101416.94;4956079;28;20073;-81
2022/09/06 00:58:33;;;;;;;11.65;6.93;;;;;;;25.07;61.25;101544.19;4957219;28;20893;-82
2022/09/06 01:01:00;;;;;;;8.52;6.45;;;;;;;25.22;60.69;101544.84;4958091;28;20069;-81
2022/09/06 01:03:27;;;;;;;9.93;7.60;;;;;;;25.01;60.81;101526.03;4968016;28;20419;-81
2022/09/06 01:05:56;;;;;;;7.90;6.82;;;;;;;25.19;61.08;101560.72;4972009;28;20058;-82
2022/09/06 01:08:41;;;;;;;12.70;7.30;;;;;;;25.13;61.31;101555.06;4977389;28;20046;-83
2022/09/06 01:11:07;;;;;;;11.45;7.13;;;;;;;25.13;61.04;101555.06;4977349;28;20565;-83
2022/09/06 01:14:15;;;;;;;13.98;7.20;;;;;;;24.79;61.38;101503.69;4969756;28;20306;-81
2022/09/06 01:16:55;;;;;;;20.27;7.97;;;;;;;24.05;61.47;101386.03;4967295;28;20157;-82
2022/09/06 01:19:24;;;;;;;12.98;7.35;;;;;;;25.06;61.41;101545.25;4968273;28;20054;-82
2022/09/06 01:22:01;;;;;;;11.85;6.82;;;;;;;25.02;61.45;101549.41;4967089;28;20396;-82
2022/09/06 01:24:46;;;;;;;8.00;6.85;;;;;;;24.98;61.83;101542.72;4967790;28;20050;-81
2022/09/06 01:27:19;;;;;;;13.40;6.85;;;;;;;24.94;62.06;101559.44;4968008;28;20065;-82
2022/09/06 01:29:51;;;;;;;7.57;6.75;;;;;;;24.26;62.13;101442.00;4968408;28;20262;-83
2022/09/06 01:32:39;;;;;;;9.90;7.35;;;;;;;24.86;62.50;101546.06;4968478;28;20054;-81
2022/09/06 01:35:43;;;;;;;14.52;7.22;;;;;;;24.83;62.22;101541.06;4968419;28;20054;-83
2022/09/06 01:38:10;;;;;;;12.75;8.35;;;;;;;24.82;62.29;101549.41;4974695;28;20104;-82
2022/09/06 01:40:37;;;;;;;15.23;9.63;;;;;;;24.65;62.43;101532.69;4987678;28;20061;-82
2022/09/06 01:43:07;;;;;;;15.93;10.63;;;;;;;24.31;62.62;101488.34;4987707;28;20144;-82
2022/09/06 01:46:01;;;;;;;11.77;8.80;;;;;;;24.67;62.86;101553.16;4987554;28;20175;-82
2022/09/06 01:48:46;;;;;;;8.98;6.85;;;;;;;24.43;63.11;101519.25;4982729;28;20042;-80
2022/09/06 01:51:36;;;;;;;9.45;7.45;;;;;;;23.97;63.17;101444.03;4967723;28;20082;-81
2022/09/06 01:54:14;;;;;;;9.55;7.07;;;;;;;24.70;62.97;101573.63;4958793;28;20058;-82
2022/09/06 01:56:46;;;;;;;10.77;8.20;;;;;;;24.06;62.73;101464.50;4969176;28;20702;-82
2022/09/06 01:59:40;;;;;;;12.60;8.35;;;;;;;24.66;62.81;101561.50;4968308;28;20078;-83
2022/09/06 02:02:19;;;;;;;10.68;7.22;;;;;;;24.43;62.33;101508.41;4967593;28;20318;-83
2022/09/06 02:05:01;;;;;;;12.38;7.75;;;;;;;24.65;62.32;101554.41;4966877;28;20046;-81
2022/09/06 02:07:31;;;;;;;8.73;7.75;;;;;;;24.30;62.10;101498.38;4966869;28;20054;-82
2022/09/06 02:10:20;;;;;;;9.98;7.28;;;;;;;24.68;61.85;101559.41;4967492;28;20568;-82
2022/09/06 02:12:50;;;;;;;7.70;6.90;;;;;;;24.57;61.77;101543.75;4967668;28;20236;-82
2022/09/06 02:15:25;;;;;;;10.68;7.28;;;;;;;24.22;61.76;101486.84;4967091;28;20559;-82
2022/09/06 02:18:01;;;;;;;10.05;7.00;;;;;;;24.55;62.21;101541.25;4967308;28;20090;-81
2022/09/06 02:20:34;;;;;;;14.07;7.90;;;;;;;24.47;61.81;101531.41;4966982;28;20137;-81
2022/09/06 02:23:05;;;;;;;12.68;7.43;;;;;;;24.50;61.67;101544.56;4966931;28;20696;-81
2022/09/06 02:25:43;;;;;;;10.20;7.53;;;;;;;24.49;61.45;101525.75;4967157;28;20133;-82
2022/09/06 02:28:10;;;;;;;13.98;7.60;;;;;;;24.60;61.18;101552.31;4966956;28;20497;-81
2022/09/06 02:30:42;;;;;;;10.82;8.10;;;;;;;24.72;61.04;101552.53;4967979;28;20057;-81
2022/09/06 02:33:16;;;;;;;12.20;7.03;;;;;;;24.41;61.00;101513.19;4967319;28;20406;-81
2022/09/06 02:35:50;;;;;;;9.93;6.53;;;;;;;24.64;61.32;101552.75;4966405;28;20244;-81
2022/09/06 02:38:21;;;;;;;7.63;5.95;;;;;;;24.63;61.49;101557.31;4982928;28;20157;-82
2022/09/06 02:40:50;;;;;;;11.25;6.72;;;;;;;23.93;61.55;101455.50;4986453;28;20046;-81
2022/09/06 02:43:17;;;;;;;9.55;6.72;;;;;;;24.50;61.64;101558.13;4986495;28;20054;-81
2022/09/06 02:45:44;;;;;;;9.82;7.00;;;;;;;24.21;61.81;101504.19;4985854;28;20077;-82
2022/09/06 02:48:11;;;;;;;13.93;7.03;;;;;;;24.42;61.94;101544.72;4986289;28;20488;-81
2022/09/06 02:50:37;;;;;;;11.02;6.82;;;;;;;24.41;61.79;101540.34;4986086;28;20108;-81
2022/09/06 02:53:10;;;;;;;12.20;7.30;;;;;;;24.13;61.60;101497.06;4987080;28;20100;-82
2022/09/06 02:55:37;;;;;;;16.40;7.55;;;;;;;24.34;61.48;101534.06;4985467;28;20645;-81
2022/09/06 02:58:07;;;;;;;12.75;6.45;;;;;;;24.18;61.82;101510.03;4986358;28;20089;-81
2022/09/06 03:00:34;;;;;;;20.52;7.00;;;;;;;24.32;62.22;101544.28;4985172;28;20668;-81
2022/09/06 03:03:01;;;;;;;11.00;7.28;;;;;;;24.23;62.13;101529.25;4984659;28;20236;-81
2022/09/06 03:05:27;;;;;;;8.43;6.65;;;;;;;24.28;61.96;101526.75;4985271;28;20310;-81
2022/09/06 03:07:54;;;;;;;10.98;7.18;;;;;;;24.30;61.94;101528.22;4985175;28;20136;-82
2022/09/06 03:10:22;;;;;;;12.15;7.95;;;;;;;24.38;62.14;101537.22;4984882;28;20054;-82
2022/09/06 03:12:49;;;;;;;14.82;8.38;;;;;;;23.98;62.46;101483.69;4991386;28;20139;-82
2022/09/06 03:15:16;;;;;;;8.57;7.18;;;;;;;24.40;62.09;101543.28;4995081;28;20062;-81
2022/09/06 03:17:43;;;;;;;10.85;6.80;;;;;;;24.40;62.54;101546.81;4992092;28;20149;-81
2022/09/06 03:20:11;;;;;;;9.45;6.28;;;;;;;24.39;62.52;101547.00;4985521;28;20049;-81
2022/09/06 03:22:38;;;;;;;14.75;7.20;;;;;;;24.24;62.95;101542.59;4986576;28;20227;-80
2022/09/06 03:25:07;;;;;;;9.25;6.60;;;;;;;24.13;62.87;101534.19;4987054;28;20134;-82
2022/09/06 03:27:35;;;;;;;12.30;6.57;;;;;;;24.23;62.73;101561.78;4985041;28;20119;-81
2022/09/06 03:30:03;;;;;;;11.73;7.53;;;;;;;24.03;62.84;101546.28;4987294;28;20151;-81
2022/09/06 03:32:30;;;;;;;15.18;7.63;;;;;;;24.10;62.73;101558.00;4984490;28;20077;-80
2022/09/06 03:34:56;;;;;;;15.25;7.88;;;;;;;24.08;63.20;101568.22;4983889;28;20105;-81
2022/09/06 03:37:23;;;;;;;10.80;7.43;;;;;;;23.54;62.80;101482.19;4984092;28;20699;-80
2022/09/06 03:39:50;;;;;;;13.32;7.10;;;;;;;23.98;61.43;101537.06;4984866;28;20558;-80
2022/09/06 03:42:17;;;;;;;11.98;7.32;;;;;;;23.97;62.16;101538.94;4987182;28;20156;-83
2022/09/06 03:44:43;;;;;;;7.30;5.97;;;;;;;23.35;62.02;101436.88;4985100;28;20206;-82
2022/09/06 03:47:10;;;;;;;10.88;6.88;;;;;;;24.06;62.16;101559.44;4984619;28;20053;-80
2022/09/06 03:49:37;;;;;;;13.27;7.70;;;;;;;23.98;61.96;101548.78;4986252;28;20132;-83
2022/09/06 03:52:04;;;;;;;7.97;6.75;;;;;;;23.83;61.72;101519.06;4984928;28;20058;-82
2022/09/06 03:54:31;;;;;;;11.43;6.20;;;;;;;23.74;61.80;101509.44;4984689;28;20054;-82
2022/09/06 03:56:57;;;;;;;18.17;6.70;;;;;;;23.84;61.14;101525.34;4984207;28;20153;-83
2022/09/06 03:59:24;;;;;;;12.35;6.57;;;;;;;23.40;60.92;101448.78;4983899;28;20227;-82
2022/09/06 04:01:51;;;;;;;10.82;6.82;;;;;;;23.86;60.94;101506.97;4985269;28;20104;-82
2022/09/06 04:04:17;;;;;;;11.55;7.07;;;;;;;23.86;60.66;101517.81;4985826;28;20607;-83
2022/09/06 04:06:44;;;;;;;10.35;6.68;;;;;;;24.02;60.66;101541.06;4985729;28;20440;-83
2022/09/06 04:09:11;;;;;;;9.82;7.20;;;;;;;23.96;60.89;101528.28;4984646;28;20053;-83
2022/09/06 04:11:38;;;;;;;13.63;6.70;;;;;;;24.15;60.40;101548.41;4984146;28;20072;-83
2022/09/06 04:14:04;;;;;;;9.35;7.25;;;;;;;24.04;60.46;101520.81;4986551;28;20140;-82
2022/09/06 04:16:31;;;;;;;10.23;6.30;;;;;;;24.10;60.75;101544.44;4986150;28;20053;-82
2022/09/06 04:18:59;;;;;;;11.95;7.03;;;;;;;23.91;60.91;101531.63;4983468;28;20722;-82
2022/09/06 04:21:26;;;;;;;18.02;7.68;;;;;;;23.94;61.20;101546.66;4984614;28;20164;-82
2022/09/06 04:23:53;;;;;;;17.65;7.10;;;;;;;23.37;61.64;101459.19;4985104;28;20077;-80
2022/09/06 04:26:20;;;;;;;7.28;6.30;;;;;;;23.79;61.79;101527.81;4984058;28;20456;-82
2022/09/06 04:28:46;;;;;;;10.95;6.70;;;;;;;23.91;62.01;101549.75;4985884;28;20124;-82
2022/09/06 04:31:13;;;;;;;11.98;7.43;;;;;;;23.64;61.99;101507.09;4983812;28;20058;-81
2022/09/06 04:33:40;;;;;;;10.23;6.63;;;;;;;23.64;62.24;101509.78;4985756;28;20592;-81
2022/09/06 04:36:09;;;;;;;16.70;7.40;;;;;;;23.80;62.49;101541.16;4984379;28;20416;-82
2022/09/06 04:38:39;;;;;;;14.48;7.57;;;;;;;23.52;62.16;101494.28;4984099;28;20703;-82
2022/09/06 04:41:09;;;;;;;11.05;7.43;;;;;;;23.78;62.68;101555.97;4999861;28;20571;-81
2022/09/06 04:43:36;;;;;;;11.40;6.78;;;;;;;23.74;62.58;101541.13;4984697;28;20176;-82
2022/09/06 04:46:11;;;;;;;13.02;7.55;;;;;;;23.63;62.40;101524.34;4985654;28;20054;-81
2022/09/06 04:48:38;;;;;;;9.73;6.78;;;;;;;23.68;62.70;101542.75;4988342;28;20871;-82
2022/09/06 04:51:05;;;;;;;15.50;8.40;;;;;;;23.74;62.74;101546.53;4988514;28;20478;-81
2022/09/06 04:53:32;;;;;;;9.20;6.63;;;;;;;23.74;63.02;101546.53;4984002;28;20248;-81
2022/09/06 04:55:58;;;;;;;15.98;7.97;;;;;;;23.73;63.34;101555.69;4968050;28;20582;-83
2022/09/06 04:58:25;;;;;;;14.93;7.90;;;;;;;23.72;63.34;101559.44;4973987;28;20068;-82
2022/09/06 05:00:52;;;;;;;10.10;7.18;;;;;;;23.67;63.21;101560.88;4987244;28;20052;-82
2022/09/06 05:03:19;;;;;;;14.02;8.27;;;;;;;23.29;63.62;101510.81;4987865;28;20190;-82
2022/09/06 05:05:45;;;;;;;12.93;8.45;;;;;;;23.50;63.69;101556.81;4988308;28;20141;-82
2022/09/06 05:08:12;;;;;;;13.98;7.97;;;;;;;23.55;64.34;101565.19;4987959;28;20061;-81
2022/09/06 05:10:39;;;;;;;10.77;7.10;;;;;;;23.55;64.06;101576.03;4987743;28;20066;-82
2022/09/06 05:13:06;;;;;;;15.35;8.70;;;;;;;22.52;64.28;101406.94;4987822;28;20112;-82
2022/09/06 05:15:32;;;;;;;12.65;7.93;;;;;;;22.79;63.98;101454.84;4989706;28;20516;-81
2022/09/06 05:18:04;;;;;;;11.55;7.70;;;;;;;23.08;63.61;101493.59;5012696;28;20049;-81
2022/09/06 05:20:31;;;;;;;18.20;9.48;;;;;;;23.66;63.03;101578.16;5003655;28;20453;-80
2022/09/06 05:22:58;;;;;;;18.58;9.18;;;;;;;23.48;63.33;101542.63;4998968;28;20140;-80
2022/09/06 05:25:25;;;;;;;16.17;8.65;;;;;;;23.75;63.30;101575.34;4979901;28;20121;-82
2022/09/06 05:27:52;;;;;;;16.85;9.93;;;;;;;23.54;63.27;101539.09;4976984;28;20470;-83
2022/09/06 05:30:18;;;;;;;12.85;8.98;;;;;;;23.48;63.59;101542.63;4987914;28;20538;-82
2022/09/06 05:32:45;;;;;;;16.35;9.30;;;;;;;23.81;63.81;101601.63;4987786;28;20063;-82
2022/09/06 05:35:12;;;;;;;16.13;9.23;;;;;;;23.52;64.12;101562.88;4987100;28;20053;-82
2022/09/06 05:37:38;;;;;;;16.35;9.73;;;;;;;23.74;64.40;101600.75;4980262;28;20133;-82
2022/09/06 05:40:05;;;;;;;15.27;10.20;;;;;;;23.64;64.63;101590.25;4977337;28;20061;-82
2022/09/06 05:42:32;;;;;;;20.73;11.45;;;;;;;23.54;64.89;101584.34;4967901;28;20576;-83
2022/09/06 05:45:00;;;;;;;17.23;10.52;;;;;;;23.65;65.19;101609.03;4971429;28;20427;-82
2022/09/06 05:47:27;;;;;;;18.58;9.90;;;;;;;23.36;65.11;101555.06;4984687;28;20061;-82
2022/09/06 05:49:54;;;;;;;17.73;11.25;;;;;;;23.65;65.33;101605.50;4984550;28;20061;-82
2022/09/06 05:52:22;;;;;;;16.25;12.00;;;;;;;23.36;65.67;101566.72;4986224;28;20061;-82
2022/09/06 05:54:48;;;;;;;17.33;10.88;;;;;;;23.61;65.85;101613.16;4987099;28;20631;-82
2022/09/06 05:57:15;;;;;;;16.85;10.82;;;;;;;23.15;65.35;101513.44;4987225;28;20058;-82
2022/09/06 05:59:42;;;;;;;15.63;10.00;;;;;;;23.56;65.41;101580.41;4986322;28;20606;-81
2022/09/06 06:02:08;;;;;;;18.25;11.30;;;;;;;23.77;65.48;101594.97;4987015;28;20556;-82
2022/09/06 06:04:35;;;;;;;24.50;13.60;;;;;;;23.78;65.90;101604.75;4970378;28;20144;-81
2022/09/06 06:07:02;;;;;;;14.73;11.48;;;;;;;23.67;65.58;101574.44;4972048;28;20045;-82
2022/09/06 06:09:28;;;;;;;21.95;10.52;;;;;;;23.23;65.44;101505.16;4989797;28;20054;-81
2022/09/06 06:11:55;;;;;;;20.98;12.77;;;;;;;22.92;65.67;101450.56;4987073;28;20056;-81
2022/09/06 06:14:22;;;;;;;17.92;12.05;;;;;;;23.21;65.69;101504.53;4987463;28;20369;-81
2022/09/06 06:16:50;;;;;;;20.13;13.20;;;;;;;23.48;65.77;101539.91;4983625;28;20097;-82
2022/09/06 06:19:17;;;;;;;17.33;13.40;;;;;;;23.48;65.74;101533.66;4966686;28;20505;-81
2022/09/06 06:21:44;;;;;;;28.63;13.27;;;;;;;23.44;65.91;101516.97;4968635;28;20050;-81
2022/09/06 06:24:10;;;;;;;17.65;12.25;;;;;;;24.02;65.61;101608.84;4968609;28;20097;-81
2022/09/06 06:26:37;;;;;;;22.60;12.30;;;;;;;23.88;65.43;101575.41;4984330;28;20057;-80
2022/09/06 06:29:08;;;;;;;19.15;12.35;;;;;;;23.93;65.15;101583.75;4992155;28;20050;-82
2022/09/06 06:31:36;;;;;;;19.73;12.93;;;;;;;23.76;64.80;101556.16;5003769;28;20054;-80
2022/09/06 06:34:03;;;;;;;16.75;10.52;;;;;;;24.03;65.27;101600.53;5008573;28;20516;-82
2022/09/06 06:36:32;;;;;;;23.77;13.10;;;;;;;24.19;65.52;101626.47;5007987;28;20489;-80
2022/09/06 06:39:00;;;;;;;18.92;11.07;;;;;;;24.21;65.01;101624.38;5007558;28;20076;-81
2022/09/06 06:41:29;;;;;;;18.20;11.02;;;;;;;24.13;64.73;101596.59;4987650;28;20376;-80
2022/09/06 06:43:59;;;;;;;15.95;11.93;;;;;;;24.03;64.17;101577.97;4987288;28;20584;-80
2022/09/06 06:46:28;;;;;;;16.38;10.27;;;;;;;24.29;64.38;101615.22;4987327;28;20158;-81
2022/09/06 06:48:55;;;;;;;19.00;13.48;;;;;;;24.22;64.30;101603.50;4996726;28;20113;-80
2022/09/06 06:51:25;;;;;;;15.43;12.23;;;;;;;24.35;64.28;101617.16;5006801;28;20391;-81
2022/09/06 06:53:52;;;;;;;20.08;10.93;;;;;;;24.45;63.90;101619.47;5006082;28;20072;-81
2022/09/06 06:56:27;;;;;;;18.17;12.55;;;;;;;24.45;63.49;101608.63;5006802;28;20460;-80
2022/09/06 06:58:56;;;;;;;23.55;11.55;;;;;;;23.63;63.32;101459.31;5006833;28;20054;-80
2022/09/06 07:01:25;;;;;;;26.00;12.90;;;;;;;24.02;62.69;101517.47;5007977;28;20053;-81
2022/09/06 07:03:53;;;;;;;18.33;10.90;;;;;;;24.60;63.11;101612.03;5007695;28;20053;-80
2022/09/06 07:06:21;;;;;;;20.38;11.13;;;;;;;24.66;63.06;101610.34;5007723;28;20057;-80
2022/09/06 07:09:07;;;;;;;16.52;10.02;;;;;;;24.71;61.89;101597.00;5005237;28;20461;-82
2022/09/06 07:11:34;;;;;;;14.30;9.55;;;;;;;24.47;61.81;101553.13;5004720;28;20042;-81
2022/09/06 07:14:01;;;;;;;15.13;8.35;;;;;;;24.34;60.83;101525.09;5005982;28;20160;-80
2022/09/06 07:16:28;;;;;;;15.70;7.53;;;;;;;24.87;60.10;101602.06;5006222;28;20124;-79
2022/09/06 07:18:55;;;;;;;15.68;7.55;;;;;;;24.64;59.46;101553.56;5009747;28;20101;-80
2022/09/06 07:21:25;;;;;;;12.35;7.68;;;;;;;24.87;58.31;101580.31;5018058;28;20229;-82
2022/09/06 07:24:07;;;;;;;12.88;5.80;;;;;;;25.00;58.15;101595.81;5024896;28;20093;-81
2022/09/06 07:26:38;;;;;;;13.93;5.97;;;;;;;25.17;56.88;101607.13;5021069;28;20045;-81
2022/09/06 07:29:06;;;;;;;7.57;4.90;;;;;;;24.94;55.60;101550.47;5008718;28;20052;-80
2022/09/06 07:31:36;;;;;;;12.45;5.78;;;;;;;25.33;54.94;101609.41;5005949;28;20054;-81
2022/09/06 07:34:24;;;;;;;12.77;5.88;;;;;;;25.01;54.66;101575.75;5006175;28;20045;-81
2022/09/06 07:36:55;;;;;;;9.98;5.43;;;;;;;25.08;55.03;101575.75;5005549;28;20134;-81
2022/09/06 07:39:22;;;;;;;9.38;5.47;;;;;;;25.27;55.27;101602.13;5001491;28;20058;-81
2022/09/06 07:41:48;;;;;;;12.98;5.57;;;;;;;25.29;54.60;101594.59;4985612;28;20046;-80
2022/09/06 07:44:15;;;;;;;11.15;5.18;;;;;;;25.05;54.02;101549.84;4986603;28;20144;-82
2022/09/06 07:46:42;;;;;;;8.15;5.82;;;;;;;25.41;53.95;101600.22;4986605;28;20050;-81
2022/09/06 07:49:10;;;;;;;8.13;5.75;;;;;;;25.21;53.90;101556.75;4997650;28;20208;-81
2022/09/06 07:51:37;;;;;;;16.08;5.68;;;;;;;25.47;53.93;101601.25;5005319;28;20042;-80
2022/09/06 07:54:04;;;;;;;14.73;5.97;;;;;;;25.21;54.28;101545.06;4988187;28;20046;-81
2022/09/06 07:56:50;;;;;;;10.07;5.40;;;;;;;25.36;53.74;101564.66;4987356;28;20085;-81
2022/09/06 07:59:17;;;;;;;7.40;5.25;;;;;;;25.01;53.99;101501.56;5002462;28;20046;-81
2022/09/06 08:01:46;;;;;;;14.32;5.60;;;;;;;25.08;54.13;101510.56;5002655;28;20099;-81
2022/09/06 08:04:13;;;;;;;11.05;5.63;;;;;;;25.69;53.30;101580.09;4996367;28;20042;-80
2022/09/06 08:06:46;;;;;;;9.48;5.00;;;;;;;25.57;53.70;101563.59;5005612;28;20073;-80
2022/09/06 08:09:34;;;;;;;7.00;5.53;;;;;;;25.78;53.41;101592.44;5005657;28;20042;-80
2022/09/06 08:12:05;;;;;;;7.95;5.53;;;;;;;25.32;52.81;101511.81;5005688;28;20086;-81
2022/09/06 08:14:33;;;;;;;12.18;5.90;;;;;;;25.91;52.91;101597.00;5005373;28;20661;-80
2022/09/06 08:17:02;;;;;;;10.23;5.50;;;;;;;25.40;53.72;101510.75;5005397;28;20042;-81
2022/09/06 08:19:29;;;;;;;10.43;5.32;;;;;;;24.73;53.14;101394.88;5005762;28;20050;-80
2022/09/06 08:21:55;;;;;;;16.90;6.47;;;;;;;25.91;52.77;101573.34;5005569;28;20127;-80
2022/09/06 08:24:22;;;;;;;9.23;6.13;;;;;;;26.04;52.34;101586.06;5005464;28;20116;-81
2022/09/06 08:26:49;;;;;;;13.30;5.47;;;;;;;26.18;52.44;101601.28;5005460;28;20042;-81
2022/09/06 08:29:16;;;;;;;13.40;5.97;;;;;;;25.95;52.97;101554.75;5006479;28;20468;-80
2022/09/06 08:31:44;;;;;;;12.73;6.43;;;;;;;26.21;52.72;101590.00;5005347;28;20057;-80
2022/09/06 08:34:12;;;;;;;10.75;5.70;;;;;;;25.92;52.64;101541.53;5005183;28;20081;-80
2022/09/06 08:36:40;;;;;;;10.40;6.55;;;;;;;26.45;51.61;101603.88;5005053;28;20050;-81
2022/09/06 08:39:08;;;;;;;13.23;5.40;;;;;;;25.23;51.69;101397.06;5004366;28;20057;-81
2022/09/06 08:41:44;;;;;;;13.60;6.68;;;;;;;26.43;52.14;101612.28;4985158;28;20560;-81
2022/09/06 08:44:23;;;;;;;12.55;6.22;;;;;;;25.99;51.08;101523.31;4985774;28;20469;-80
2022/09/06 08:47:12;;;;;;;15.57;6.72;;;;;;;26.50;51.83;101605.97;4985586;28;20042;-79
2022/09/06 08:49:38;;;;;;;10.73;6.22;;;;;;;26.51;51.63;101592.13;5000996;28;20078;-80
2022/09/06 08:52:11;;;;;;;9.73;6.30;;;;;;;26.62;51.11;101598.78;5005155;28;20498;-79
2022/09/06 08:55:20;;;;;;;12.40;6.05;;;;;;;26.63;52.19;101601.31;5005216;28;20042;-80
2022/09/06 08:57:52;;;;;;;10.40;6.35;;;;;;;26.77;51.37;101591.16;4995282;28;20061;-80
2022/09/06 09:00:19;;;;;;;7.28;5.65;;;;;;;26.80;51.29;101574.38;5005142;28;20077;-80
2022/09/06 09:02:51;;;;;;;8.05;6.15;;;;;;;26.57;51.50;101536.00;5005173;28;20054;-80
2022/09/06 09:05:19;;;;;;;7.43;6.10;;;;;;;26.97;52.03;101591.03;4985349;28;20061;-80
2022/09/06 09:07:53;;;;;;;15.73;7.45;;;;;;;27.11;51.38;101588.19;4985927;28;20054;-79
2022/09/06 09:10:26;;;;;;;10.45;6.38;;;;;;;27.11;51.75;101585.44;4987205;28;20132;-81
2022/09/06 09:12:53;;;;;;;11.82;6.93;;;;;;;27.11;52.01;101582.72;4985652;28;20489;-81
2022/09/06 09:15:20;;;;;;;13.18;8.20;;;;;;;27.17;51.74;101579.13;4985612;28;20058;-81
2022/09/06 09:17:49;;;;;;;9.98;6.63;;;;;;;27.30;51.23;101584.47;4986477;28;20046;-81
2022/09/06 09:20:16;;;;;;;8.60;6.30;;;;;;;27.39;50.23;101588.59;4993171;28;20112;-80
2022/09/06 09:22:43;;;;;;;9.82;6.97;;;;;;;27.39;50.73;101593.22;4992809;28;20056;-81
2022/09/06 09:25:23;;;;;;;13.48;6.63;;;;;;;27.42;50.98;101566.31;4986460;28;20121;-81
2022/09/06 09:27:57;;;;;;;12.23;5.85;;;;;;;27.74;50.55;101579.81;4996048;28;20064;-82
2022/09/06 09:30:25;;;;;;;12.63;7.28;;;;;;;27.63;50.13;101550.59;5013074;28;20049;-81
2022/09/06 09:33:32;;;;;;;8.73;6.53;;;;;;;27.98;49.77;101569.09;5009107;28;20432;-81
2022/09/06 09:36:03;;;;;;;9.38;6.22;;;;;;;27.92;49.96;101533.47;5008948;28;20568;-80
2022/09/06 09:38:42;;;;;;;18.45;6.60;;;;;;;28.06;48.92;101533.28;5008311;28;20477;-82
2022/09/06 09:41:22;;;;;;;10.00;6.05;;;;;;;27.88;49.39;101488.59;4990608;28;20058;-80
2022/09/06 09:44:04;;;;;;;16.48;7.10;;;;;;;28.06;48.80;101492.34;4988800;28;20104;-81
2022/09/06 09:46:33;;;;;;;11.18;6.28;;;;;;;28.66;49.30;101554.31;4989066;28;20098;-81
2022/09/06 09:49:23;;;;;;;8.50;5.55;;;;;;;28.80;48.43;101549.47;4998575;28;20054;-80
2022/09/06 09:52:09;;;;;;;12.40;6.90;;;;;;;29.13;47.21;101549.78;5007849;28;20057;-81
2022/09/06 09:54:39;;;;;;;12.57;7.07;;;;;;;29.09;47.38;101543.13;5007990;28;20054;-81
2022/09/06 09:57:08;;;;;;;15.70;6.72;;;;;;;29.11;47.41;101531.97;5007801;28;20049;-82
2022/09/06 09:59:43;;;;;;;;;;;;;;;29.35;47.08;101546.47;5008748;28;20064;-80
2022/09/06 10:02:27;;;;;;;11.90;6.40;;;;;;;28.63;46.61;101380.78;5006371;28;20365;-81
2022/09/06 10:05:08;;;;;;;7.18;6.03;;;;;;;29.77;46.34;101532.63;5004367;28;20060;-82
2022/09/06 10:07:42;;;;;;;11.80;6.95;;;;;;;29.82;46.35;101510.81;5007891;28;20057;-80
2022/09/06 10:10:19;;;;;;;11.90;6.50;;;;;;;30.17;45.56;101526.28;5007923;28;20414;-82
2022/09/06 10:12:46;;;;;;;10.05;6.32;;;;;;;30.24;45.64;101525.06;5006400;28;20050;-82
2022/09/06 10:15:32;;;;;;;11.38;6.95;;;;;;;30.27;45.05;101520.19;5008876;28;20050;-82
2022/09/06 10:17:59;;;;;;;7.28;5.40;;;;;;;30.32;45.09;101512.91;5007790;28;20054;-81
2022/09/06 10:20:42;;;;;;;14.13;6.68;;;;;;;30.40;44.45;101501.53;5007798;28;20198;-82
2022/09/06 10:23:20;;;;;;;13.73;5.85;;;;;;;30.18;44.11;101440.31;5007279;28;20576;-81
2022/09/06 10:26:09;;;;;;;14.77;7.38;;;;;;;30.80;44.25;101511.53;5007996;28;20348;-81
2022/09/06 10:28:42;;;;;;;10.60;6.47;;;;;;;31.06;43.50;101500.97;5007123;28;20108;-82
2022/09/06 10:31:09;;;;;;;16.13;6.80;;;;;;;31.35;43.00;101522.78;5008923;28;20046;-82
2022/09/06 10:33:54;;;;;;;9.57;6.53;;;;;;;31.41;42.00;101519.03;5008489;28;20054;-82
2022/09/06 10:36:48;;;;;;;12.10;6.60;;;;;;;31.12;41.81;101450.63;5007686;28;20216;-81
2022/09/06 10:40:02;;;;;;;9.90;6.43;;;;;;;31.38;41.52;101445.47;5006205;28;20404;-81
2022/09/06 10:42:46;;;;;;;8.82;6.50;;;;;;;31.48;41.52;101442.88;4989115;28;20050;-81
2022/09/06 10:45:15;;;;;;;11.32;6.18;;;;;;;31.10;42.16;101365.03;5004000;28;20056;-82
2022/09/06 10:48:00;;;;;;;10.77;6.15;;;;;;;32.12;41.38;101492.47;5007559;28;20120;-82
2022/09/06 10:50:37;;;;;;;11.20;6.32;;;;;;;32.04;41.43;101456.41;4987720;28;20051;-83
2022/09/06 10:53:15;;;;;;;12.82;7.07;;;;;;;32.04;40.86;101448.16;4987282;28;20069;-80
2022/09/06 10:55:47;;;;;;;11.63;6.80;;;;;;;32.17;40.45;101446.94;4988461;28;20182;-81
2022/09/06 10:58:21;;;;;;;14.10;6.45;;;;;;;32.46;40.60;101497.75;4987536;28;20045;-82
2022/09/06 11:00:51;;;;;;;11.27;5.82;;;;;;;32.50;40.50;101487.06;4987219;28;20053;-81
2022/09/06 11:03:36;;;;;;;10.80;7.45;;;;;;;32.50;40.18;101471.44;4992667;28;20140;-80
2022/09/06 11:06:21;;;;;;;9.82;7.15;;;;;;;32.63;40.39;101466.59;4989878;28;20402;-81
2022/09/06 11:09:16;;;;;;;11.40;6.13;;;;;;;32.29;39.91;101392.66;4987812;28;20379;-81
2022/09/06 11:11:49;;;;;;;12.52;5.93;;;;;;;32.73;39.58;101422.66;4995178;28;20068;-83
2022/09/06 11:14:19;;;;;;;12.23;5.72;;;;;;;32.59;39.53;101374.75;5008056;28;20053;-83
2022/09/06 11:16:53;;;;;;;9.90;5.05;;;;;;;33.03;38.70;101393.69;4992675;28;20046;-81
2022/09/06 11:19:31;;;;;;;11.38;6.70;;;;;;;32.78;37.97;101329.22;4987010;28;20054;-81
2022/09/06 11:22:20;;;;;;;12.18;6.72;;;;;;;33.80;37.47;101461.72;4987180;28;20065;-81
2022/09/06 11:25:08;;;;;;;13.77;6.47;;;;;;;33.76;36.82;101422.03;4985883;28;20054;-82
2022/09/06 11:27:41;;;;;;;11.45;6.82;;;;;;;33.57;37.11;101410.75;4986573;28;20070;-79
2022/09/06 11:30:14;;;;;;;11.77;6.15;;;;;;;33.80;37.41;101450.69;4995312;28;20096;-80
2022/09/06 11:32:48;;;;;;;9.00;5.55;;;;;;;33.82;36.57;101440.25;4997066;28;20108;-80
2022/09/06 11:35:31;;;;;;;6.57;5.97;;;;;;;33.88;36.77;101443.00;5019382;28;20567;-81
2022/09/06 11:38:20;;;;;;;7.78;5.95;;;;;;;33.87;36.54;101422.91;5007781;28;20096;-83
2022/09/06 11:40:56;;;;;;;10.55;7.40;;;;;;;34.02;36.13;101424.84;4989830;28;20132;-79
2022/09/06 11:43:46;;;;;;;12.70;6.03;;;;;;;34.38;36.15;101436.72;4986192;28;20544;-79